Weather at Camino Airstrip

Public forecast

Using degrees Fahrenheit for public forecast. Weather courtesy of forecast.io.

Closest aviation weather report (METAR) to Camino Airstrip

Closest report is Needles Airport, 17.0 nm (31.4 km) ESE. Retrieved 2021/06/13 09:56 UTC (20 minutes ago):

KEED 130956Z AUTO 30004KT 10SM CLR 27/M12 A2972 RMK AO2 SLP028 T02671122

Closest aviation forecast (TAF) to Camino Airstrip

Closest forecast is Needles Airport, 17.0 nm (31.4 km) ESE. Retrieved 2021/06/13 06:22 UTC (4 hours ago):

TAF KEED 130520Z 1306/1406 24009KT P6SM FEW250 FM130900 VRB05KT P6SM FEW250 FM131900 19013G22KT P6SM SKC